createdAt,value
2022-08-07T00:12:01.347Z,48.81
2022-08-07T00:33:47.759Z,49.25
2022-08-07T00:56:03.403Z,49.94
2022-08-07T01:17:40.194Z,50.63
2022-08-07T01:39:26.957Z,51.64
2022-08-07T02:02:00.216Z,52.35
2022-08-07T02:23:39.503Z,53.05
2022-08-07T02:45:59.446Z,53.60
2022-08-07T03:08:04.806Z,54.23
2022-08-07T03:29:49.603Z,55.13
2022-08-07T03:51:47.107Z,56.97
2022-08-07T04:14:09.927Z,66.67
2022-08-07T04:35:41.775Z,48.90
2022-08-07T04:58:24.504Z,51.25
2022-08-07T05:19:44.941Z,51.98
2022-08-07T05:42:00.727Z,52.54
2022-08-07T06:03:53.983Z,52.58
2022-08-07T06:25:54.905Z,52.77
2022-08-07T06:47:48.233Z,52.71
2022-08-07T07:09:50.836Z,52.47
2022-08-07T07:31:44.516Z,52.56
2022-08-07T07:53:35.447Z,52.25
2022-08-07T08:15:23.311Z,49.90
2022-08-07T08:37:59.330Z,38.39
2022-08-07T08:59:26.581Z,35.06
2022-08-07T09:21:33.784Z,29.36
2022-08-07T09:44:03.678Z,30.30
2022-08-07T10:06:17.975Z,31.19
2022-08-07T10:28:27.186Z,31.44
2022-08-07T10:50:26.561Z,30.41
2022-08-07T11:12:32.018Z,24.96
2022-08-07T11:34:26.756Z,19.13
2022-08-07T11:56:35.273Z,14.91
2022-08-07T12:18:38.391Z,12.61
2022-08-07T12:40:47.595Z,10.77
2022-08-07T13:03:06.781Z,10.00
2022-08-07T13:25:00.052Z,9.43
2022-08-07T13:46:54.504Z,9.12
2022-08-07T14:08:45.376Z,9.37
2022-08-07T14:30:36.288Z,10.09
2022-08-07T14:52:29.006Z,10.60
2022-08-07T15:14:21.348Z,12.85
2022-08-07T15:36:10.506Z,13.97
2022-08-07T15:58:00.352Z,14.59
2022-08-07T16:20:03.922Z,15.24
2022-08-07T16:42:13.713Z,17.20
2022-08-07T17:04:12.184Z,20.11
2022-08-07T17:26:24.292Z,22.52
2022-08-07T17:48:30.927Z,24.22
2022-08-07T18:10:32.967Z,26.37
2022-08-07T18:32:41.630Z,27.56
2022-08-07T18:54:49.586Z,29.04
2022-08-07T19:17:06.592Z,30.89
2022-08-07T19:38:59.606Z,32.16
2022-08-07T20:00:54.119Z,33.93
2022-08-07T20:22:48.033Z,35.23
2022-08-07T20:44:39.530Z,36.68
2022-08-07T21:06:33.317Z,37.91
2022-08-07T21:28:47.628Z,39.24
2022-08-07T21:50:36.296Z,39.98
2022-08-07T22:12:25.481Z,41.11
2022-08-07T22:34:18.824Z,42.19
2022-08-07T22:56:28.810Z,42.80
2022-08-07T23:18:42.123Z,43.44
2022-08-07T23:40:39.716Z,44.50
